Terminal Aerodrome Forecast
Issued by NWS

Home | Current Version | Previous Version | Text Only | Print | Product List | Glossary On
Versions: 1 2 3 4 5 6 7 8 9 10 11 12 13 14 15 16 17 18 19 20 21 22 23 24 25 26 27 28
000
FTUS45 KLKN 221314 RRA
TAFEKO
TAF
KEKO 221314Z 2213/2312 VRB06KT P6SM BKN110
     FM221900 VRB06KT P6SM -TSRA BKN060CB OVC200
     FM230200 20005KT P6SM FEW060 SCT200=

USA.gov is the U.S. government's official web portal to all federal, state and local government web resources and services.